Time;durP1;ratioP1;P1;durP2;ratioP2;P2;SDS_P1;SDS_P2;PMS_P1;PMS_P2;Temp;Humidity;BMP_temperature;BMP_pressure;BME280_temperature;BME280_humidity;BME280_pressure;Samples;Min_cycle;Max_cycle;Signal;HPM_P1;HPM_P2
2023/05/23 00:01:30;;;;;;;58.63;23.77;;;14.60;99.90;;;;;;4182971;28;20182;-94
2023/05/23 00:03:31;;;;;;;58.03;22.60;;;14.40;99.90;;;;;;4183146;28;20232;-90
2023/05/23 00:05:32;;;;;;;56.90;23.63;;;14.60;99.90;;;;;;4182591;28;20282;-93
2023/05/23 00:07:33;;;;;;;53.78;23.15;;;14.60;99.90;;;;;;4182545;28;20636;-94
2023/05/23 00:09:34;;;;;;;56.53;22.80;;;14.50;99.90;;;;;;4182737;28;20373;-93
2023/05/23 00:11:36;;;;;;;53.83;23.85;;;14.40;99.90;;;;;;4182798;28;20182;-94
2023/05/23 00:13:38;;;;;;;52.17;23.63;;;14.40;99.90;;;;;;4182512;28;20241;-92
2023/05/23 00:15:40;;;;;;;65.40;22.83;;;14.30;99.90;;;;;;4182928;28;20188;-93
2023/05/23 00:17:41;;;;;;;57.13;23.58;;;14.50;99.90;;;;;;4182794;28;20199;-93
2023/05/23 00:19:44;;;;;;;54.28;23.35;;;14.50;99.90;;;;;;4182776;28;20171;-92
2023/05/23 00:21:51;;;;;;;51.38;24.17;;;14.90;99.90;;;;;;4182321;28;20236;-92
2023/05/23 00:23:52;;;;;;;62.05;23.88;;;14.80;99.90;;;;;;4182429;28;20176;-92
2023/05/23 00:25:53;;;;;;;60.35;23.63;;;14.60;99.90;;;;;;4181838;28;20712;-92
2023/05/23 00:27:54;;;;;;;56.97;23.83;;;14.60;99.90;;;;;;4198786;28;20175;-93
2023/05/23 00:29:54;;;;;;;64.28;24.48;;;14.60;99.90;;;;;;4182371;28;20214;-92
2023/05/23 00:31:55;;;;;;;62.58;25.17;;;14.60;99.90;;;;;;4182580;28;20225;-93
2023/05/23 00:33:56;;;;;;;71.82;25.73;;;14.70;99.90;;;;;;4182170;28;20206;-93
2023/05/23 00:35:57;;;;;;;64.68;24.55;;;15.00;99.90;;;;;;4182284;28;20541;-93
2023/05/23 00:38:01;;;;;;;67.28;27.00;;;14.90;99.90;;;;;;4182377;28;20186;-93
2023/05/23 00:40:01;;;;;;;65.60;25.60;;;15.00;99.90;;;;;;4182194;28;20663;-94
2023/05/23 00:42:04;;;;;;;73.97;25.45;;;15.00;99.90;;;;;;4182076;28;20179;-93
2023/05/23 00:44:05;;;;;;;74.63;25.98;;;15.10;99.90;;;;;;4182218;28;20182;-92
2023/05/23 00:46:07;;;;;;;62.22;25.48;;;15.00;99.90;;;;;;4182224;28;20619;-91
2023/05/23 00:48:07;;;;;;;70.75;27.80;;;15.00;99.90;;;;;;4181920;28;20241;-93
2023/05/23 00:50:15;;;;;;;72.07;27.35;;;15.00;99.90;;;;;;4182263;28;20638;-93
2023/05/23 00:52:16;;;;;;;70.93;27.02;;;15.40;99.90;;;;;;4181892;28;20171;-94
2023/05/23 00:54:22;;;;;;;73.25;27.02;;;15.30;99.90;;;;;;4181832;28;20183;-93
2023/05/23 00:56:25;;;;;;;69.28;26.98;;;15.10;99.90;;;;;;4181857;28;20245;-92
2023/05/23 00:58:26;;;;;;;70.28;27.13;;;15.20;99.90;;;;;;4181631;28;20180;-93
2023/05/23 01:00:27;;;;;;;65.03;26.13;;;15.00;99.90;;;;;;4182205;28;20189;-92
2023/05/23 01:02:32;;;;;;;68.30;27.00;;;15.20;99.90;;;;;;4181873;28;20559;-93
2023/05/23 01:04:34;;;;;;;75.97;27.90;;;15.10;99.90;;;;;;4181842;28;20179;-90
2023/05/23 01:06:35;;;;;;;62.83;26.63;;;15.00;99.90;;;;;;4182015;28;20179;-92
2023/05/23 01:08:37;;;;;;;77.65;28.65;;;15.00;99.90;;;;;;4181811;28;20547;-95
2023/05/23 01:10:38;;;;;;;76.07;28.75;;;15.00;99.90;;;;;;4181778;28;20672;-90
2023/05/23 01:12:57;;;;;;;67.97;27.83;;;15.20;99.90;;;;;;4181402;28;20211;-93
2023/05/23 01:15:03;;;;;;;75.32;27.88;;;15.30;99.90;;;;;;4181696;28;20218;-92
2023/05/23 01:17:14;;;;;;;70.43;28.25;;;15.20;99.90;;;;;;4181818;28;20273;-94
2023/05/23 01:19:22;;;;;;;79.60;29.33;;;15.30;99.90;;;;;;4181806;28;20203;-93
2023/05/23 01:21:25;;;;;;;84.35;30.20;;;15.20;99.90;;;;;;4197652;28;20174;-90
2023/05/23 01:23:32;;;;;;;71.38;28.55;;;15.10;99.90;;;;;;4181493;28;20166;-93
2023/05/23 01:25:37;;;;;;;67.38;27.70;;;15.00;99.90;;;;;;4198059;28;20191;-95
2023/05/23 01:27:47;;;;;;;84.10;29.80;;;15.10;99.90;;;;;;4181658;28;20172;-92
2023/05/23 01:29:55;;;;;;;76.82;29.92;;;15.20;99.90;;;;;;4181608;28;20175;-93
2023/05/23 01:31:57;;;;;;;78.43;27.70;;;15.20;99.90;;;;;;4181419;28;20203;-92
2023/05/23 01:33:58;;;;;;;75.10;28.88;;;15.10;99.90;;;;;;4181296;28;20719;-93
2023/05/23 01:36:04;;;;;;;77.25;27.77;;;15.00;99.90;;;;;;4181113;28;20298;-95
2023/05/23 01:38:05;;;;;;;75.28;27.77;;;15.10;99.90;;;;;;4181183;28;20258;-94
2023/05/23 01:40:06;;;;;;;69.63;26.33;;;15.10;99.90;;;;;;4197993;28;20229;-89
2023/05/23 01:42:08;;;;;;;67.00;26.45;;;15.10;99.90;;;;;;4181557;28;20172;-93
2023/05/23 01:44:09;;;;;;;66.75;26.27;;;15.00;99.90;;;;;;4181464;28;20175;-92
2023/05/23 01:46:11;;;;;;;60.28;24.95;;;15.00;99.90;;;;;;4181162;28;20199;-92
2023/05/23 01:48:14;;;;;;;60.15;25.10;;;15.10;99.90;;;;;;4181457;28;20251;-94
2023/05/23 01:50:16;;;;;;;53.22;21.48;;;15.10;99.90;;;;;;4181385;28;20179;-93
2023/05/23 01:52:18;;;;;;;43.42;21.00;;;14.80;99.90;;;;;;4181062;28;20171;-93
2023/05/23 01:54:19;;;;;;;39.88;18.27;;;14.80;99.90;;;;;;4181154;28;20195;-92
2023/05/23 01:56:21;;;;;;;38.88;18.52;;;15.10;99.90;;;;;;4197338;28;20220;-93
2023/05/23 01:58:22;;;;;;;37.70;18.92;;;15.40;99.90;;;;;;4181134;28;20195;-90
2023/05/23 02:00:23;;;;;;;43.00;18.90;;;15.40;99.90;;;;;;4180929;28;20198;-93
2023/05/23 02:02:24;;;;;;;32.90;16.67;;;15.10;99.90;;;;;;4197715;28;20266;-93
2023/05/23 02:04:26;;;;;;;33.60;16.80;;;15.10;99.90;;;;;;4198252;28;20175;-92
2023/05/23 02:06:27;;;;;;;28.55;15.80;;;15.20;99.90;;;;;;4181108;28;20778;-92
2023/05/23 02:08:28;;;;;;;31.63;16.10;;;15.10;99.90;;;;;;4181268;28;20214;-92
2023/05/23 02:10:28;;;;;;;31.10;15.48;;;15.00;99.90;;;;;;4181278;28;20226;-93
2023/05/23 02:12:29;;;;;;;33.47;15.05;;;15.00;99.90;;;;;;4180926;28;20207;-91
2023/05/23 02:14:30;;;;;;;33.60;14.95;;;14.90;99.90;;;;;;4181178;28;20276;-92
2023/05/23 02:16:32;;;;;;;35.22;14.73;;;14.70;99.90;;;;;;4180942;28;20167;-93
2023/05/23 02:18:36;;;;;;;33.88;15.05;;;14.70;99.90;;;;;;4181113;28;20179;-92
2023/05/23 02:20:37;;;;;;;34.38;15.93;;;14.70;99.90;;;;;;4181051;28;20163;-93
2023/05/23 02:22:38;;;;;;;31.80;15.07;;;14.90;99.90;;;;;;4180904;28;20163;-92
2023/05/23 02:24:39;;;;;;;33.88;16.42;;;14.70;99.90;;;;;;4180837;28;20175;-94
2023/05/23 02:26:40;;;;;;;38.08;15.20;;;14.50;99.90;;;;;;4180876;28;20172;-92
2023/05/23 02:28:41;;;;;;;37.78;16.80;;;14.50;99.90;;;;;;4197448;28;20205;-93
2023/05/23 02:30:42;;;;;;;31.30;15.90;;;14.50;99.90;;;;;;4180963;28;20272;-89
2023/05/23 02:32:43;;;;;;;31.48;15.82;;;14.60;99.90;;;;;;4180804;28;20552;-90
2023/05/23 02:34:45;;;;;;;34.03;16.05;;;14.60;99.90;;;;;;4182839;28;20187;-93
2023/05/23 02:36:46;;;;;;;34.42;16.00;;;14.60;99.90;;;;;;4184073;28;20255;-94
2023/05/23 02:38:47;;;;;;;42.13;17.08;;;14.50;99.90;;;;;;4184215;28;20274;-93
2023/05/23 02:40:49;;;;;;;33.25;15.70;;;14.60;99.90;;;;;;4184112;28;20179;-93
2023/05/23 02:42:51;;;;;;;37.30;15.93;;;14.60;99.90;;;;;;4200743;28;20171;-92
2023/05/23 02:44:52;;;;;;;33.63;15.40;;;14.80;99.90;;;;;;4183564;28;20215;-89
2023/05/23 02:46:53;;;;;;;39.55;16.00;;;14.80;99.90;;;;;;4183837;28;20171;-93
2023/05/23 02:48:53;;;;;;;43.70;16.35;;;14.90;99.90;;;;;;4200463;28;20253;-93
2023/05/23 02:50:54;;;;;;;41.83;17.17;;;14.80;99.90;;;;;;4183712;28;20187;-90
2023/05/23 02:52:55;;;;;;;43.20;17.10;;;14.70;99.90;;;;;;4183692;28;20264;-91
2023/05/23 02:54:56;;;;;;;44.05;16.38;;;14.50;99.90;;;;;;4183870;28;20202;-93
2023/05/23 02:56:57;;;;;;;43.47;17.50;;;14.60;99.90;;;;;;4200594;28;20175;-91
2023/05/23 02:58:58;;;;;;;39.60;16.85;;;14.60;99.90;;;;;;4183804;28;20168;-93
2023/05/23 03:00:59;;;;;;;44.60;16.48;;;14.50;99.90;;;;;;4183726;28;20178;-92
2023/05/23 03:03:00;;;;;;;42.67;16.50;;;14.80;99.90;;;;;;4183683;28;20164;-92
2023/05/23 03:05:01;;;;;;;44.33;17.33;;;15.10;99.90;;;;;;4183842;28;20199;-93
2023/05/23 03:07:02;;;;;;;42.67;17.13;;;15.00;99.90;;;;;;4183946;28;20701;-91
2023/05/23 03:09:03;;;;;;;40.45;16.48;;;15.00;99.90;;;;;;4200410;28;20285;-92
2023/05/23 03:11:04;;;;;;;42.35;17.67;;;15.20;99.90;;;;;;4183858;28;20175;-92
2023/05/23 03:13:05;;;;;;;39.20;17.55;;;15.20;99.90;;;;;;4200279;28;20211;-90
2023/05/23 03:15:06;;;;;;;47.58;18.98;;;15.30;99.90;;;;;;4183793;28;20191;-94
2023/05/23 03:17:07;;;;;;;42.55;18.95;;;15.20;99.90;;;;;;4183739;28;20180;-92
2023/05/23 03:19:07;;;;;;;41.45;17.90;;;15.00;99.90;;;;;;4183695;28;20213;-92
2023/05/23 03:21:08;;;;;;;49.85;19.00;;;14.80;99.90;;;;;;4183563;28;20274;-93
2023/05/23 03:23:09;;;;;;;46.75;19.95;;;14.80;99.90;;;;;;4183672;28;20205;-92
2023/05/23 03:25:10;;;;;;;36.03;17.85;;;14.80;99.90;;;;;;4183503;28;20183;-93
2023/05/23 03:27:11;;;;;;;39.67;19.23;;;14.80;99.90;;;;;;4183253;28;20179;-92
2023/05/23 03:29:11;;;;;;;43.70;20.52;;;14.60;99.90;;;;;;4199967;28;20248;-93
2023/05/23 03:31:12;;;;;;;39.65;19.73;;;14.60;99.90;;;;;;4199568;28;20178;-92
2023/05/23 03:33:13;;;;;;;52.30;20.67;;;14.30;99.90;;;;;;4183188;28;20211;-91
2023/05/23 03:35:14;;;;;;;44.97;21.67;;;14.40;99.90;;;;;;4183236;28;20231;-94
2023/05/23 03:37:15;;;;;;;43.53;21.73;;;14.30;99.90;;;;;;4199912;28;20167;-93
2023/05/23 03:39:16;;;;;;;53.97;23.63;;;14.30;99.90;;;;;;4183504;28;20267;-93
2023/05/23 03:41:16;;;;;;;52.35;24.45;;;14.50;99.90;;;;;;4199890;28;20179;-94
2023/05/23 03:43:18;;;;;;;54.10;24.90;;;14.50;99.90;;;;;;4183382;28;20172;-93
2023/05/23 03:45:19;;;;;;;54.55;26.38;;;14.50;99.90;;;;;;4182602;28;20188;-90
2023/05/23 03:47:19;;;;;;;44.72;24.05;;;14.40;99.90;;;;;;4199771;28;20201;-92
2023/05/23 03:49:21;;;;;;;64.40;26.38;;;14.30;99.90;;;;;;4182937;28;20262;-93
2023/05/23 03:51:23;;;;;;;61.05;26.73;;;14.40;99.90;;;;;;4183331;28;20290;-93
2023/05/23 03:53:23;;;;;;;60.47;27.23;;;14.40;99.90;;;;;;4182974;28;20336;-90
2023/05/23 03:55:24;;;;;;;59.70;26.40;;;14.20;99.90;;;;;;4182991;28;20191;-93
2023/05/23 03:57:25;;;;;;;57.53;26.05;;;14.30;99.90;;;;;;4183044;28;20266;-93
2023/05/23 03:59:26;;;;;;;53.67;25.48;;;14.30;99.90;;;;;;4183097;28;20221;-94
2023/05/23 04:01:27;;;;;;;54.63;25.90;;;14.30;99.90;;;;;;4199295;28;20258;-93
2023/05/23 04:03:31;;;;;;;50.38;24.05;;;14.40;99.90;;;;;;4199580;28;20543;-94
2023/05/23 04:05:32;;;;;;;53.20;24.65;;;14.40;99.90;;;;;;4183052;28;20252;-93
2023/05/23 04:07:34;;;;;;;47.25;23.20;;;14.40;99.90;;;;;;4199197;28;20166;-93
2023/05/23 04:09:34;;;;;;;47.22;23.17;;;14.30;99.90;;;;;;4183088;28;20564;-93
2023/05/23 04:11:37;;;;;;;40.25;21.02;;;14.30;99.90;;;;;;4199354;28;20167;-94
2023/05/23 04:13:37;;;;;;;48.63;21.05;;;14.20;99.90;;;;;;4182419;28;20213;-93
2023/05/23 04:15:39;;;;;;;40.10;19.38;;;14.30;99.90;;;;;;4199232;28;20532;-91
2023/05/23 04:17:42;;;;;;;46.75;20.45;;;14.30;99.90;;;;;;4183189;28;20168;-94
2023/05/23 04:19:44;;;;;;;42.00;19.17;;;14.60;99.90;;;;;;4182791;28;20176;-94
2023/05/23 04:21:45;;;;;;;33.67;18.58;;;14.80;99.90;;;;;;4182317;28;20186;-93
2023/05/23 04:23:49;;;;;;;40.80;18.92;;;14.90;99.90;;;;;;4199014;28;20264;-92
2023/05/23 04:25:50;;;;;;;37.38;18.50;;;14.80;99.90;;;;;;4199094;28;20570;-93
2023/05/23 04:28:05;;;;;;;39.42;18.40;;;14.70;99.90;;;;;;4184373;28;20246;-93
2023/05/23 04:30:08;;;;;;;35.47;19.02;;;14.80;99.90;;;;;;4182776;28;20167;-93
2023/05/23 04:32:10;;;;;;;39.95;19.55;;;15.00;99.90;;;;;;4182685;28;20180;-93
2023/05/23 04:34:11;;;;;;;34.35;17.70;;;15.00;99.90;;;;;;4182654;28;20198;-93
2023/05/23 04:36:13;;;;;;;37.55;17.73;;;15.20;99.90;;;;;;4182592;28;20214;-92
2023/05/23 04:38:18;;;;;;;33.38;16.52;;;15.30;99.90;;;;;;4182934;28;20175;-94
2023/05/23 04:40:18;;;;;;;33.67;16.83;;;15.10;99.90;;;;;;4199061;28;20244;-93
2023/05/23 04:42:41;;;;;;;39.00;17.98;;;14.80;99.90;;;;;;4184806;28;20233;-94
2023/05/23 04:45:14;;;;;;;35.20;17.35;;;14.70;99.90;;;;;;4203456;28;20710;-94
2023/05/23 04:47:47;;;;;;;34.00;16.75;;;15.10;99.90;;;;;;4176579;28;20178;-93
2023/05/23 04:50:04;;;;;;;30.48;16.52;;;14.90;99.90;;;;;;4183952;28;20714;-94
2023/05/23 04:52:05;;;;;;;34.05;17.48;;;14.90;99.90;;;;;;4182077;28;20728;-93
2023/05/23 04:54:07;;;;;;;38.40;18.17;;;15.10;99.90;;;;;;4182135;28;20273;-93
2023/05/23 04:56:08;;;;;;;40.70;18.73;;;15.10;99.90;;;;;;4181842;28;20590;-93
2023/05/23 04:58:11;;;;;;;47.40;18.33;;;15.20;99.90;;;;;;4181664;28;20178;-93
2023/05/23 05:00:13;;;;;;;32.05;18.30;;;15.30;99.90;;;;;;4198409;28;20167;-93
2023/05/23 05:02:15;;;;;;;35.58;18.25;;;15.20;99.90;;;;;;4181751;28;20316;-94
2023/05/23 05:04:15;;;;;;;41.28;19.08;;;15.00;99.90;;;;;;4181916;28;20167;-91
2023/05/23 05:06:18;;;;;;;38.25;18.45;;;15.10;99.90;;;;;;4183497;28;20713;-94
2023/05/23 05:08:20;;;;;;;40.15;17.05;;;15.20;99.90;;;;;;4200999;28;20166;-95
2023/05/23 05:10:24;;;;;;;50.25;15.73;;;15.40;99.90;;;;;;4200160;23;20214;-95
2023/05/23 05:12:25;;;;;;;37.08;14.30;;;15.30;99.90;;;;;;4165742;28;20247;-96
2023/05/23 05:14:30;;;;;;;43.17;14.40;;;15.00;99.90;;;;;;4167278;28;20230;-94
2023/05/23 05:16:33;;;;;;;44.05;13.40;;;14.90;99.90;;;;;;4152129;28;20219;-95
2023/05/23 05:18:35;;;;;;;35.35;13.70;;;14.90;99.90;;;;;;4152091;28;20557;-95
2023/05/23 05:20:36;;;;;;;36.38;12.88;;;14.60;99.90;;;;;;4150059;28;20197;-95
2023/05/23 05:22:41;;;;;;;40.83;12.30;;;14.60;99.90;;;;;;4151474;28;20173;-96
2023/05/23 05:24:47;;;;;;;38.85;11.82;;;14.40;99.90;;;;;;4166159;28;20233;-96
2023/05/23 05:26:59;;;;;;;35.42;11.40;;;14.40;99.90;;;;;;4151323;28;20792;-96
2023/05/23 05:29:03;;;;;;;47.22;12.38;;;14.40;99.90;;;;;;4152641;28;20189;-94
2023/05/23 05:31:04;;;;;;;35.78;12.38;;;14.40;99.90;;;;;;4165513;28;20637;-95
2023/05/23 05:33:09;;;;;;;45.00;12.93;;;14.20;99.90;;;;;;4167542;28;20208;-96
2023/05/23 05:35:12;;;;;;;38.72;12.57;;;14.20;99.90;;;;;;4149027;28;20223;-94
2023/05/23 05:37:14;;;;;;;35.72;12.48;;;14.20;99.90;;;;;;4151519;28;20160;-96
2023/05/23 05:39:16;;;;;;;35.55;11.35;;;14.50;99.90;;;;;;4152899;28;20185;-95
2023/05/23 05:41:17;;;;;;;37.60;11.10;;;14.50;99.90;;;;;;4150453;28;20213;-96
2023/05/23 05:43:27;;;;;;;38.50;12.52;;;14.50;99.90;;;;;;4154463;28;20235;-96
2023/05/23 05:45:32;;;;;;;40.13;12.15;;;14.40;99.90;;;;;;4168995;28;20243;-96
2023/05/23 05:47:33;;;;;;;44.95;12.63;;;14.70;99.90;;;;;;4167819;28;20218;-96
2023/05/23 05:49:34;;;;;;;38.55;12.77;;;14.70;99.90;;;;;;4152526;28;20172;-95
2023/05/23 05:51:36;;;;;;;44.55;13.38;;;14.60;99.90;;;;;;4165450;28;20250;-96
2023/05/23 05:53:40;;;;;;;40.13;12.98;;;14.50;99.90;;;;;;4149043;28;20200;-96
2023/05/23 05:55:41;;;;;;;42.25;13.38;;;14.60;99.90;;;;;;4166863;28;20255;-96
2023/05/23 05:57:42;;;;;;;42.00;13.80;;;14.60;99.90;;;;;;4150519;28;20180;-94
2023/05/23 05:59:43;;;;;;;39.67;12.90;;;14.20;99.90;;;;;;4151241;28;20156;-95
2023/05/23 06:01:49;;;;;;;44.03;13.43;;;14.00;99.90;;;;;;4167154;28;20235;-94
2023/05/23 06:03:50;;;;;;;48.13;14.05;;;13.90;99.90;;;;;;4169211;28;20207;-93
2023/05/23 06:05:52;;;;;;;37.13;12.88;;;14.00;99.90;;;;;;4151029;28;20242;-95
2023/05/23 06:07:53;;;;;;;36.03;12.13;;;13.90;99.90;;;;;;4149350;28;20177;-96
2023/05/23 06:09:56;;;;;;;37.35;13.18;;;13.90;99.90;;;;;;4150630;28;20630;-95
2023/05/23 06:12:08;;;;;;;36.17;12.10;;;13.90;99.90;;;;;;4152694;28;20255;-96
2023/05/23 06:14:10;;;;;;;40.03;12.98;;;13.70;99.90;;;;;;4166500;28;20212;-95
2023/05/23 06:16:15;;;;;;;36.90;12.00;;;13.60;99.90;;;;;;4169320;28;20203;-95
2023/05/23 06:18:18;;;;;;;39.90;14.20;;;13.70;99.90;;;;;;4149848;28;20179;-95
2023/05/23 06:20:19;;;;;;;45.05;15.00;;;13.80;99.90;;;;;;4168958;28;20175;-96
2023/05/23 06:22:21;;;;;;;36.88;13.60;;;14.00;99.90;;;;;;4151865;28;20184;-95
2023/05/23 06:24:22;;;;;;;40.20;12.55;;;13.90;99.90;;;;;;4167465;28;20178;-94
2023/05/23 06:26:25;;;;;;;38.97;12.05;;;14.00;99.90;;;;;;4167200;28;20267;-95
2023/05/23 06:28:26;;;;;;;40.08;10.57;;;14.10;99.90;;;;;;4165074;28;20184;-96
2023/05/23 06:30:32;;;;;;;29.05;9.20;;;14.20;99.90;;;;;;4170228;28;20179;-96
2023/05/23 06:32:33;;;;;;;33.20;9.98;;;14.10;99.90;;;;;;4152102;28;20264;-95
2023/05/23 06:34:34;;;;;;;25.80;9.95;;;14.10;99.90;;;;;;4167964;28;20247;-96
2023/05/23 06:36:34;;;;;;;33.00;9.43;;;14.10;99.90;;;;;;4152414;28;20181;-96
2023/05/23 06:39:01;;;;;;;17.13;7.95;;;14.20;99.90;;;;;;4151511;28;20165;-95
2023/05/23 06:41:08;;;;;;;21.75;8.40;;;14.20;99.90;;;;;;4154960;28;20185;-94
2023/05/23 06:43:10;;;;;;;30.25;8.68;;;14.00;99.90;;;;;;4151094;28;20576;-95
2023/05/23 06:45:40;;;;;;;24.33;9.60;;;14.10;99.90;;;;;;4153209;28;20196;-96
2023/05/23 06:47:44;;;;;;;25.05;7.78;;;14.40;99.90;;;;;;4151209;28;20192;-94
2023/05/23 06:49:45;;;;;;;30.33;9.13;;;14.30;99.90;;;;;;4152771;28;20185;-95
2023/05/23 06:51:49;;;;;;;20.35;7.50;;;14.30;99.90;;;;;;4150830;28;20165;-95
2023/05/23 06:53:50;;;;;;;29.08;8.18;;;14.40;99.90;;;;;;4148391;28;20220;-94
2023/05/23 06:55:51;;;;;;;23.48;8.30;;;14.40;99.90;;;;;;4149194;28;20189;-95
2023/05/23 06:57:56;;;;;;;27.77;8.35;;;14.80;99.90;;;;;;4149866;28;20541;-96
2023/05/23 07:00:00;;;;;;;31.63;7.50;;;15.00;99.90;;;;;;4150696;28;20209;-94
2023/05/23 07:02:01;;;;;;;25.20;8.00;;;15.00;99.90;;;;;;4148708;28;20181;-96
2023/05/23 07:04:11;;;;;;;20.75;7.10;;;15.00;99.90;;;;;;4166423;28;20211;-94
2023/05/23 07:06:12;;;;;;;27.73;7.07;;;15.30;99.90;;;;;;4167128;28;20196;-94
2023/05/23 07:08:14;;;;;;;22.08;7.18;;;15.00;99.90;;;;;;4149512;28;20622;-95
2023/05/23 07:10:25;;;;;;;23.77;7.88;;;15.00;99.90;;;;;;4165030;28;20620;-95
2023/05/23 07:12:35;;;;;;;21.80;7.68;;;14.80;99.90;;;;;;4153640;28;20653;-95
2023/05/23 07:14:37;;;;;;;21.10;7.80;;;14.80;99.90;;;;;;4164969;28;20180;-95
2023/05/23 07:16:39;;;;;;;21.45;7.30;;;15.00;99.90;;;;;;4151214;28;20646;-95
2023/05/23 07:18:41;;;;;;;18.33;7.43;;;15.00;99.90;;;;;;4181362;28;20175;-95
2023/05/23 07:20:46;;;;;;;23.27;7.55;;;14.80;99.90;;;;;;4150513;28;20161;-93
2023/05/23 07:22:51;;;;;;;26.40;8.05;;;14.90;99.90;;;;;;4169317;28;20200;-95
2023/05/23 07:24:52;;;;;;;26.80;8.23;;;15.10;99.90;;;;;;4168449;28;20215;-95
2023/05/23 07:26:56;;;;;;;26.48;7.45;;;15.40;99.90;;;;;;4151067;28;20192;-95
2023/05/23 07:28:57;;;;;;;26.45;7.90;;;15.50;99.90;;;;;;4167346;28;20613;-94
2023/05/23 07:30:58;;;;;;;17.70;6.90;;;16.10;99.90;;;;;;4169283;28;20176;-94
2023/05/23 07:32:59;;;;;;;22.83;7.70;;;17.10;99.90;;;;;;4171518;28;20218;-95
2023/05/23 07:35:01;;;;;;;27.05;6.68;;;17.00;99.90;;;;;;4151991;28;20196;-95
2023/05/23 07:37:02;;;;;;;18.67;6.28;;;16.90;99.90;;;;;;4154194;28;20184;-95
2023/05/23 07:39:09;;;;;;;21.67;6.97;;;16.80;99.90;;;;;;4152611;28;20188;-96
2023/05/23 07:41:10;;;;;;;23.38;7.75;;;16.90;99.90;;;;;;4155676;28;20759;-96
2023/05/23 07:43:11;;;;;;;17.92;6.13;;;17.20;99.90;;;;;;4151342;28;20180;-94
2023/05/23 07:45:21;;;;;;;17.33;7.15;;;17.50;99.90;;;;;;4153161;28;20196;-96
2023/05/23 07:47:23;;;;;;;20.98;7.53;;;17.90;99.90;;;;;;4154331;28;20172;-95
2023/05/23 07:49:23;;;;;;;20.55;6.93;;;17.80;99.90;;;;;;4169956;28;20541;-94
2023/05/23 07:51:28;;;;;;;27.13;6.55;;;17.70;99.90;;;;;;4166655;28;20168;-96
2023/05/23 07:53:29;;;;;;;28.23;7.00;;;17.50;99.90;;;;;;4156372;28;20209;-95
2023/05/23 07:55:31;;;;;;;27.95;6.70;;;17.10;99.90;;;;;;4170085;28;20204;-95
2023/05/23 07:57:33;;;;;;;25.92;7.47;;;16.80;99.90;;;;;;4151365;28;20177;-95
2023/05/23 07:59:33;;;;;;;17.58;6.47;;;17.10;99.90;;;;;;4170251;28;20170;-94
2023/05/23 08:01:35;;;;;;;24.35;6.60;;;17.90;99.90;;;;;;4151836;28;20683;-93
2023/05/23 08:03:40;;;;;;;18.38;6.38;;;18.60;99.90;;;;;;4152758;28;20232;-94
2023/05/23 08:05:55;;;;;;;20.73;6.90;;;18.70;99.90;;;;;;4185890;28;20203;-95
2023/05/23 08:08:14;;;;;;;21.23;6.85;;;18.20;99.90;;;;;;4151571;28;20641;-95
2023/05/23 08:10:15;;;;;;;23.20;6.53;;;17.40;99.90;;;;;;4151682;28;20645;-93
2023/05/23 08:12:24;;;;;;;21.88;6.78;;;17.20;99.90;;;;;;4169515;28;20184;-94
2023/05/23 08:14:35;;;;;;;23.67;7.30;;;17.10;99.90;;;;;;4170385;28;20172;-93
2023/05/23 08:16:47;;;;;;;24.38;7.40;;;17.20;99.90;;;;;;4153239;28;20172;-93
2023/05/23 08:18:54;;;;;;;19.58;6.85;;;17.30;99.90;;;;;;4155812;28;20173;-96
2023/05/23 08:20:55;;;;;;;23.60;6.75;;;17.20;99.90;;;;;;4170298;28;20715;-93
2023/05/23 08:23:00;;;;;;;26.13;7.45;;;16.90;99.90;;;;;;4167359;28;20165;-95
2023/05/23 08:25:10;;;;;;;21.33;6.88;;;16.90;99.90;;;;;;4154397;28;20197;-94
2023/05/23 08:27:14;;;;;;;22.85;7.13;;;16.40;99.90;;;;;;4153247;28;20251;-95
2023/05/23 08:29:15;;;;;;;27.40;7.65;;;16.10;99.90;;;;;;4169023;28;20263;-94
2023/05/23 08:31:20;;;;;;;22.85;7.97;;;15.80;99.90;;;;;;4171492;28;20148;-94
2023/05/23 08:33:24;;;;;;;21.27;8.02;;;15.80;99.90;;;;;;4153533;28;20208;-96
2023/05/23 08:35:33;;;;;;;23.75;6.85;;;15.60;99.90;;;;;;4169572;28;20199;-94
2023/05/23 08:37:34;;;;;;;20.00;7.40;;;15.40;99.90;;;;;;4169265;28;20226;-96
2023/05/23 08:39:35;;;;;;;21.45;8.50;;;15.10;99.90;;;;;;4169381;28;20187;-96
2023/05/23 08:41:59;;;;;;;20.17;8.05;;;15.00;99.90;;;;;;4168381;28;20180;-96
2023/05/23 08:44:11;;;;;;;17.42;7.93;;;14.70;99.90;;;;;;4168575;28;20238;-96
2023/05/23 08:46:43;;;;;;;23.48;8.40;;;14.70;99.90;;;;;;4164716;28;20176;-95
2023/05/23 08:48:59;;;;;;;28.38;8.82;;;14.60;99.90;;;;;;4150510;28;20173;-95
2023/05/23 08:51:02;;;;;;;20.88;7.68;;;14.50;99.90;;;;;;4154535;28;20169;-96
2023/05/23 08:53:07;;;;;;;25.67;8.25;;;14.40;99.90;;;;;;4169392;28;20253;-96
2023/05/23 08:55:11;;;;;;;23.63;8.82;;;14.40;99.90;;;;;;4167713;28;20587;-95
2023/05/23 08:57:12;;;;;;;27.83;7.85;;;14.50;99.90;;;;;;4150198;28;20180;-95
2023/05/23 08:59:19;;;;;;;19.90;8.20;;;14.40;99.90;;;;;;4152263;28;20692;-94
2023/05/23 09:01:22;;;;;;;27.90;7.45;;;14.70;99.90;;;;;;4152449;28;20177;-95
2023/05/23 09:03:26;;;;;;;18.58;7.43;;;14.70;99.90;;;;;;4152873;28;20198;-96
2023/05/23 09:05:43;;;;;;;16.90;7.47;;;14.80;99.90;;;;;;4152518;28;20197;-93
2023/05/23 09:07:50;;;;;;;20.80;7.82;;;14.90;99.90;;;;;;4168434;28;20203;-94
2023/05/23 09:09:52;;;;;;;20.05;7.65;;;14.90;99.90;;;;;;4150236;28;20183;-94
2023/05/23 09:11:54;;;;;;;23.35;7.60;;;14.80;99.90;;;;;;4150762;28;20189;-94
2023/05/23 09:13:57;;;;;;;26.52;8.15;;;14.90;99.90;;;;;;4169212;28;20207;-95
2023/05/23 09:16:04;;;;;;;23.67;8.10;;;14.70;99.90;;;;;;4151168;28;20208;-96
2023/05/23 09:18:35;;;;;;;28.63;7.93;;;14.80;99.90;;;;;;4168144;28;20184;-95
2023/05/23 09:20:52;;;;;;;23.17;8.13;;;15.00;99.90;;;;;;4166938;28;20556;-96
2023/05/23 09:22:54;;;;;;;19.52;7.82;;;15.10;99.90;;;;;;4155048;28;20180;-96
2023/05/23 09:24:56;;;;;;;21.55;8.02;;;14.90;99.90;;;;;;4152926;28;20700;-96
2023/05/23 09:26:57;;;;;;;22.70;7.47;;;14.80;99.90;;;;;;4170585;28;20163;-94
2023/05/23 09:28:59;;;;;;;21.52;6.85;;;14.90;99.90;;;;;;4152446;28;20200;-95
2023/05/23 09:31:02;;;;;;;21.20;7.57;;;15.00;99.90;;;;;;4170609;28;20164;-95
2023/05/23 09:33:04;;;;;;;18.73;7.38;;;15.10;99.90;;;;;;4168607;28;20301;-94
2023/05/23 09:35:12;;;;;;;17.85;7.13;;;15.20;99.90;;;;;;4149160;28;20266;-96
2023/05/23 09:37:17;;;;;;;18.85;6.88;;;15.00;99.90;;;;;;4150479;28;20677;-96
2023/05/23 09:39:18;;;;;;;20.38;6.72;;;15.00;99.90;;;;;;4152314;28;20153;-94
2023/05/23 09:41:21;;;;;;;18.30;6.57;;;15.10;99.90;;;;;;4153835;28;20180;-94
2023/05/23 09:43:22;;;;;;;19.00;6.63;;;14.90;99.90;;;;;;4165839;28;20215;-95
2023/05/23 09:45:45;;;;;;;20.08;6.85;;;15.10;99.90;;;;;;4152061;28;20225;-95
2023/05/23 09:47:50;;;;;;;16.20;5.63;;;15.10;99.90;;;;;;4150942;28;20263;-95
2023/05/23 09:49:51;;;;;;;18.30;5.68;;;15.30;99.90;;;;;;4167349;28;20211;-94
2023/05/23 09:52:00;;;;;;;16.50;4.65;;;15.20;99.90;;;;;;4169848;28;20176;-95
2023/05/23 09:54:01;;;;;;;15.75;4.55;;;15.20;99.90;;;;;;4183718;28;20630;-96
2023/05/23 09:56:03;;;;;;;11.50;4.53;;;15.30;99.90;;;;;;4153151;28;20195;-94
2023/05/23 09:58:10;;;;;;;14.95;4.07;;;15.20;99.90;;;;;;4167481;28;20209;-96
2023/05/23 10:00:14;;;;;;;12.30;4.05;;;15.50;99.90;;;;;;4149851;28;20633;-95
2023/05/23 10:02:22;;;;;;;11.80;4.15;;;15.80;99.90;;;;;;4165796;28;20267;-94
2023/05/23 10:04:26;;;;;;;12.35;3.83;;;16.20;99.90;;;;;;4166682;28;20178;-95
2023/05/23 10:06:33;;;;;;;10.15;3.70;;;16.40;99.90;;;;;;4153189;28;20212;-94
2023/05/23 10:08:44;;;;;;;15.40;3.67;;;16.60;99.90;;;;;;4153848;28;20204;-95
2023/05/23 10:10:57;;;;;;;12.77;2.83;;;16.60;99.90;;;;;;4168464;28;20230;-95
2023/05/23 10:13:00;;;;;;;13.85;3.10;;;16.40;99.90;;;;;;4150304;28;20220;-96
2023/05/23 10:15:04;;;;;;;11.00;2.78;;;16.50;99.90;;;;;;4151957;28;20244;-94
2023/05/23 10:17:17;;;;;;;8.32;2.70;;;16.40;99.90;;;;;;4149684;28;20165;-95
2023/05/23 10:19:40;;;;;;;8.00;2.22;;;16.40;99.90;;;;;;4167725;28;20184;-95
2023/05/23 10:21:55;;;;;;;12.98;2.88;;;16.30;99.90;;;;;;4154991;28;20179;-95
2023/05/23 10:24:03;;;;;;;14.15;2.53;;;16.60;99.90;;;;;;4168127;28;20171;-95
2023/05/23 10:26:04;;;;;;;12.32;2.78;;;16.60;99.90;;;;;;4155551;28;20204;-94
2023/05/23 10:28:05;;;;;;;12.73;3.13;;;16.80;99.90;;;;;;4150816;28;20771;-96
2023/05/23 10:30:07;;;;;;;7.10;2.58;;;17.20;99.90;;;;;;4167723;28;20153;-95
2023/05/23 10:32:16;;;;;;;5.95;2.47;;;17.10;99.90;;;;;;4149855;28;20184;-94